sensor_id;sensor_type;location;lat;lon;timestamp;temperature;humidity
78898;DHT22;70344;44.736;37.800;2023-05-24T00:00:21;24.25;56.18
78898;DHT22;70344;44.736;37.800;2023-05-24T00:01:22;24.24;56.17
78898;DHT22;70344;44.736;37.800;2023-05-24T00:02:26;24.24;56.16
78898;DHT22;70344;44.736;37.800;2023-05-24T00:03:28;24.25;56.18
78898;DHT22;70344;44.736;37.800;2023-05-24T00:04:34;24.24;56.21
78898;DHT22;70344;44.736;37.800;2023-05-24T00:05:36;24.25;56.23
78898;DHT22;70344;44.736;37.800;2023-05-24T00:06:37;24.25;56.20
78898;DHT22;70344;44.736;37.800;2023-05-24T00:07:39;24.26;56.16
78898;DHT22;70344;44.736;37.800;2023-05-24T00:08:40;24.24;56.17
78898;DHT22;70344;44.736;37.800;2023-05-24T00:09:42;24.25;56.13
78898;DHT22;70344;44.736;37.800;2023-05-24T00:10:43;24.22;56.21
78898;DHT22;70344;44.736;37.800;2023-05-24T00:11:45;24.22;56.21
78898;DHT22;70344;44.736;37.800;2023-05-24T00:12:46;24.25;56.15
78898;DHT22;70344;44.736;37.800;2023-05-24T00:13:48;24.22;56.16
78898;DHT22;70344;44.736;37.800;2023-05-24T00:14:49;24.24;56.15
78898;DHT22;70344;44.736;37.800;2023-05-24T00:15:51;24.22;56.11
78898;DHT22;70344;44.736;37.800;2023-05-24T00:16:53;24.24;56.14
78898;DHT22;70344;44.736;37.800;2023-05-24T00:17:54;24.24;56.17
78898;DHT22;70344;44.736;37.800;2023-05-24T00:18:56;24.24;56.22
78898;DHT22;70344;44.736;37.800;2023-05-24T00:19:59;24.21;56.19
78898;DHT22;70344;44.736;37.800;2023-05-24T00:21:00;24.22;56.21
78898;DHT22;70344;44.736;37.800;2023-05-24T00:22:02;24.22;56.17
78898;DHT22;70344;44.736;37.800;2023-05-24T00:23:03;24.24;56.17
78898;DHT22;70344;44.736;37.800;2023-05-24T00:24:04;24.24;56.21
78898;DHT22;70344;44.736;37.800;2023-05-24T00:25:07;24.21;56.18
78898;DHT22;70344;44.736;37.800;2023-05-24T00:26:09;24.22;56.18
78898;DHT22;70344;44.736;37.800;2023-05-24T00:27:14;24.21;56.18
78898;DHT22;70344;44.736;37.800;2023-05-24T00:28:15;24.22;56.23
78898;DHT22;70344;44.736;37.800;2023-05-24T00:29:17;24.22;56.20
78898;DHT22;70344;44.736;37.800;2023-05-24T00:30:18;24.24;56.21
78898;DHT22;70344;44.736;37.800;2023-05-24T00:31:19;24.21;56.23
78898;DHT22;70344;44.736;37.800;2023-05-24T00:32:21;24.21;56.19
78898;DHT22;70344;44.736;37.800;2023-05-24T00:33:23;24.22;56.22
78898;DHT22;70344;44.736;37.800;2023-05-24T00:34:26;24.24;56.22
78898;DHT22;70344;44.736;37.800;2023-05-24T00:35:27;24.20;56.21
78898;DHT22;70344;44.736;37.800;2023-05-24T00:36:29;24.24;56.19
78898;DHT22;70344;44.736;37.800;2023-05-24T00:37:31;24.20;56.14
78898;DHT22;70344;44.736;37.800;2023-05-24T00:38:32;24.21;56.20
78898;DHT22;70344;44.736;37.800;2023-05-24T00:39:34;24.21;56.20
78898;DHT22;70344;44.736;37.800;2023-05-24T00:40:35;24.22;56.22
78898;DHT22;70344;44.736;37.800;2023-05-24T00:41:37;24.20;56.18
78898;DHT22;70344;44.736;37.800;2023-05-24T00:42:38;24.21;56.23
78898;DHT22;70344;44.736;37.800;2023-05-24T00:43:39;24.20;56.23
78898;DHT22;70344;44.736;37.800;2023-05-24T00:44:45;24.24;56.18
78898;DHT22;70344;44.736;37.800;2023-05-24T00:45:46;24.22;56.20
78898;DHT22;70344;44.736;37.800;2023-05-24T00:46:48;24.20;56.19
78898;DHT22;70344;44.736;37.800;2023-05-24T00:47:49;24.21;56.18
78898;DHT22;70344;44.736;37.800;2023-05-24T00:48:51;24.22;56.21
78898;DHT22;70344;44.736;37.800;2023-05-24T00:49:53;24.21;56.19
78898;DHT22;70344;44.736;37.800;2023-05-24T00:50:54;24.21;56.22
78898;DHT22;70344;44.736;37.800;2023-05-24T00:51:57;24.20;56.23
78898;DHT22;70344;44.736;37.800;2023-05-24T00:53:02;24.20;56.19
78898;DHT22;70344;44.736;37.800;2023-05-24T00:54:04;24.20;56.23
78898;DHT22;70344;44.736;37.800;2023-05-24T00:55:07;24.24;56.25
78898;DHT22;70344;44.736;37.800;2023-05-24T00:56:10;24.22;56.22
78898;DHT22;70344;44.736;37.800;2023-05-24T00:57:13;24.20;56.22
78898;DHT22;70344;44.736;37.800;2023-05-24T00:58:15;24.21;56.23
78898;DHT22;70344;44.736;37.800;2023-05-24T00:59:16;24.21;56.24
78898;DHT22;70344;44.736;37.800;2023-05-24T01:00:18;24.21;56.23
78898;DHT22;70344;44.736;37.800;2023-05-24T01:01:19;24.21;56.27
78898;DHT22;70344;44.736;37.800;2023-05-24T01:02:21;24.21;56.25
78898;DHT22;70344;44.736;37.800;2023-05-24T01:03:26;24.18;56.28
78898;DHT22;70344;44.736;37.800;2023-05-24T01:04:30;24.20;56.29
78898;DHT22;70344;44.736;37.800;2023-05-24T01:05:33;24.20;56.22
78898;DHT22;70344;44.736;37.800;2023-05-24T01:09:48;24.24;56.31
78898;DHT22;70344;44.736;37.800;2023-05-24T01:10:58;24.21;56.29
78898;DHT22;70344;44.736;37.800;2023-05-24T01:13:24;24.21;56.27
78898;DHT22;70344;44.736;37.800;2023-05-24T01:15:22;24.20;56.26
78898;DHT22;70344;44.736;37.800;2023-05-24T01:16:00;24.20;56.34
78898;DHT22;70344;44.736;37.800;2023-05-24T01:17:30;24.20;56.29
78898;DHT22;70344;44.736;37.800;2023-05-24T01:18:40;24.18;56.34
78898;DHT22;70344;44.736;37.800;2023-05-24T01:20:03;24.18;56.34
78898;DHT22;70344;44.736;37.800;2023-05-24T01:25:52;24.17;56.44
78898;DHT22;70344;44.736;37.800;2023-05-24T01:27:13;24.18;56.49
78898;DHT22;70344;44.736;37.800;2023-05-24T01:28:16;24.20;56.53
78898;DHT22;70344;44.736;37.800;2023-05-24T01:29:19;24.18;56.43
78898;DHT22;70344;44.736;37.800;2023-05-24T01:30:21;24.17;56.52
78898;DHT22;70344;44.736;37.800;2023-05-24T01:31:23;24.15;56.50
78898;DHT22;70344;44.736;37.800;2023-05-24T01:32:24;24.18;56.51
78898;DHT22;70344;44.736;37.800;2023-05-24T01:33:26;24.17;56.53
78898;DHT22;70344;44.736;37.800;2023-05-24T01:34:28;24.17;56.48
78898;DHT22;70344;44.736;37.800;2023-05-24T01:35:29;24.17;56.54
78898;DHT22;70344;44.736;37.800;2023-05-24T01:36:31;24.18;56.55
78898;DHT22;70344;44.736;37.800;2023-05-24T01:37:32;24.17;56.54
78898;DHT22;70344;44.736;37.800;2023-05-24T01:38:35;24.17;56.53
78898;DHT22;70344;44.736;37.800;2023-05-24T01:39:37;24.17;56.48
78898;DHT22;70344;44.736;37.800;2023-05-24T01:40:39;24.18;56.52
78898;DHT22;70344;44.736;37.800;2023-05-24T01:43:25;24.17;56.51
78898;DHT22;70344;44.736;37.800;2023-05-24T01:44:41;24.15;56.51
78898;DHT22;70344;44.736;37.800;2023-05-24T01:50:22;24.15;56.57
78898;DHT22;70344;44.736;37.800;2023-05-24T01:51:33;24.15;56.54
78898;DHT22;70344;44.736;37.800;2023-05-24T01:52:38;24.12;56.62
78898;DHT22;70344;44.736;37.800;2023-05-24T01:53:45;24.15;56.64
78898;DHT22;70344;44.736;37.800;2023-05-24T01:54:50;24.15;56.52
78898;DHT22;70344;44.736;37.800;2023-05-24T01:55:56;24.17;56.64
78898;DHT22;70344;44.736;37.800;2023-05-24T01:57:01;24.17;56.59
78898;DHT22;70344;44.736;37.800;2023-05-24T01:58:06;24.18;56.57
78898;DHT22;70344;44.736;37.800;2023-05-24T01:59:10;24.15;56.58
78898;DHT22;70344;44.736;37.800;2023-05-24T02:00:13;24.15;56.55
78898;DHT22;70344;44.736;37.800;2023-05-24T02:01:16;24.15;56.61
78898;DHT22;70344;44.736;37.800;2023-05-24T02:02:18;24.17;56.62
78898;DHT22;70344;44.736;37.800;2023-05-24T02:03:21;24.17;56.59
78898;DHT22;70344;44.736;37.800;2023-05-24T02:04:23;24.15;56.51
78898;DHT22;70344;44.736;37.800;2023-05-24T02:05:24;24.14;56.54
78898;DHT22;70344;44.736;37.800;2023-05-24T02:06:26;24.15;56.60
78898;DHT22;70344;44.736;37.800;2023-05-24T02:07:27;24.15;56.61
78898;DHT22;70344;44.736;37.800;2023-05-24T02:08:29;24.14;56.61
78898;DHT22;70344;44.736;37.800;2023-05-24T02:09:30;24.17;56.62
78898;DHT22;70344;44.736;37.800;2023-05-24T02:10:34;24.17;56.55
78898;DHT22;70344;44.736;37.800;2023-05-24T02:11:38;24.17;56.62
78898;DHT22;70344;44.736;37.800;2023-05-24T02:12:40;24.17;56.60
78898;DHT22;70344;44.736;37.800;2023-05-24T02:13:41;24.17;56.61
78898;DHT22;70344;44.736;37.800;2023-05-24T02:14:43;24.15;56.63
78898;DHT22;70344;44.736;37.800;2023-05-24T02:15:44;24.17;56.62
78898;DHT22;70344;44.736;37.800;2023-05-24T02:16:47;24.17;56.61
78898;DHT22;70344;44.736;37.800;2023-05-24T02:17:51;24.17;56.64
78898;DHT22;70344;44.736;37.800;2023-05-24T02:18:54;24.15;56.59
78898;DHT22;70344;44.736;37.800;2023-05-24T02:19:56;24.15;56.53
78898;DHT22;70344;44.736;37.800;2023-05-24T02:20:57;24.17;56.62
78898;DHT22;70344;44.736;37.800;2023-05-24T02:21:59;24.15;56.55
78898;DHT22;70344;44.736;37.800;2023-05-24T02:23:00;24.17;56.55
78898;DHT22;70344;44.736;37.800;2023-05-24T02:24:02;24.15;56.53
78898;DHT22;70344;44.736;37.800;2023-05-24T02:25:04;24.15;56.58
78898;DHT22;70344;44.736;37.800;2023-05-24T02:26:05;24.15;56.61
78898;DHT22;70344;44.736;37.800;2023-05-24T02:27:07;24.18;56.47
78898;DHT22;70344;44.736;37.800;2023-05-24T02:28:08;24.17;56.51
78898;DHT22;70344;44.736;37.800;2023-05-24T02:29:10;24.17;56.59
78898;DHT22;70344;44.736;37.800;2023-05-24T02:30:12;24.17;56.49
78898;DHT22;70344;44.736;37.800;2023-05-24T02:31:13;24.17;56.53
78898;DHT22;70344;44.736;37.800;2023-05-24T02:32:15;24.17;56.54
78898;DHT22;70344;44.736;37.800;2023-05-24T02:33:17;24.14;56.58
78898;DHT22;70344;44.736;37.800;2023-05-24T02:34:18;24.17;56.52
78898;DHT22;70344;44.736;37.800;2023-05-24T02:35:20;24.18;56.50
78898;DHT22;70344;44.736;37.800;2023-05-24T02:36:21;24.18;56.51
78898;DHT22;70344;44.736;37.800;2023-05-24T02:37:24;24.14;56.55
78898;DHT22;70344;44.736;37.800;2023-05-24T02:38:25;24.18;56.57
78898;DHT22;70344;44.736;37.800;2023-05-24T02:39:27;24.17;56.48
78898;DHT22;70344;44.736;37.800;2023-05-24T02:40:28;24.15;56.57
78898;DHT22;70344;44.736;37.800;2023-05-24T02:41:29;24.14;56.54
78898;DHT22;70344;44.736;37.800;2023-05-24T02:42:31;24.15;56.49
78898;DHT22;70344;44.736;37.800;2023-05-24T02:43:33;24.15;56.51
78898;DHT22;70344;44.736;37.800;2023-05-24T02:44:34;24.17;56.57
78898;DHT22;70344;44.736;37.800;2023-05-24T02:45:36;24.18;56.54
78898;DHT22;70344;44.736;37.800;2023-05-24T02:46:37;24.18;56.47
78898;DHT22;70344;44.736;37.800;2023-05-24T02:47:39;24.17;56.54
78898;DHT22;70344;44.736;37.800;2023-05-24T02:48:40;24.17;56.51
78898;DHT22;70344;44.736;37.800;2023-05-24T02:49:42;24.17;56.50
78898;DHT22;70344;44.736;37.800;2023-05-24T02:50:43;24.15;56.53
78898;DHT22;70344;44.736;37.800;2023-05-24T02:51:44;24.18;56.50
78898;DHT22;70344;44.736;37.800;2023-05-24T02:52:46;24.15;56.55
78898;DHT22;70344;44.736;37.800;2023-05-24T02:53:48;24.18;56.49
78898;DHT22;70344;44.736;37.800;2023-05-24T02:54:50;24.17;56.54
78898;DHT22;70344;44.736;37.800;2023-05-24T02:55:53;24.17;56.55
78898;DHT22;70344;44.736;37.800;2023-05-24T02:56:55;24.15;56.51
78898;DHT22;70344;44.736;37.800;2023-05-24T02:57:58;24.17;56.49
78898;DHT22;70344;44.736;37.800;2023-05-24T02:59:01;24.15;56.53
78898;DHT22;70344;44.736;37.800;2023-05-24T03:00:04;24.15;56.49
78898;DHT22;70344;44.736;37.800;2023-05-24T03:01:10;24.14;56.57
78898;DHT22;70344;44.736;37.800;2023-05-24T03:02:13;24.17;56.58
78898;DHT22;70344;44.736;37.800;2023-05-24T03:03:14;24.18;56.53
78898;DHT22;70344;44.736;37.800;2023-05-24T03:04:16;24.17;56.56
78898;DHT22;70344;44.736;37.800;2023-05-24T03:05:18;24.14;56.57
78898;DHT22;70344;44.736;37.800;2023-05-24T03:06:19;24.15;56.55
78898;DHT22;70344;44.736;37.800;2023-05-24T03:07:21;24.17;56.57
78898;DHT22;70344;44.736;37.800;2023-05-24T03:08:22;24.17;56.56
78898;DHT22;70344;44.736;37.800;2023-05-24T03:09:24;24.15;56.62
78898;DHT22;70344;44.736;37.800;2023-05-24T03:10:25;24.18;56.57
78898;DHT22;70344;44.736;37.800;2023-05-24T03:11:27;24.17;56.61
78898;DHT22;70344;44.736;37.800;2023-05-24T03:12:28;24.17;56.58
78898;DHT22;70344;44.736;37.800;2023-05-24T03:13:30;24.17;56.58
78898;DHT22;70344;44.736;37.800;2023-05-24T03:14:31;24.17;56.52
78898;DHT22;70344;44.736;37.800;2023-05-24T03:15:32;24.17;56.52
78898;DHT22;70344;44.736;37.800;2023-05-24T03:16:34;24.18;56.51
78898;DHT22;70344;44.736;37.800;2023-05-24T03:17:38;24.15;56.53
78898;DHT22;70344;44.736;37.800;2023-05-24T03:18:39;24.17;56.47
78898;DHT22;70344;44.736;37.800;2023-05-24T03:19:41;24.17;56.41
78898;DHT22;70344;44.736;37.800;2023-05-24T03:20:48;24.15;56.46
78898;DHT22;70344;44.736;37.800;2023-05-24T03:21:49;24.17;56.41
78898;DHT22;70344;44.736;37.800;2023-05-24T03:22:52;24.17;56.37
78898;DHT22;70344;44.736;37.800;2023-05-24T03:23:53;24.17;56.44
78898;DHT22;70344;44.736;37.800;2023-05-24T03:24:54;24.14;56.44
78898;DHT22;70344;44.736;37.800;2023-05-24T03:25:56;24.17;56.47
78898;DHT22;70344;44.736;37.800;2023-05-24T03:26:59;24.15;56.48
78898;DHT22;70344;44.736;37.800;2023-05-24T03:28:02;24.17;56.59
78898;DHT22;70344;44.736;37.800;2023-05-24T03:29:03;24.15;56.50
78898;DHT22;70344;44.736;37.800;2023-05-24T03:30:10;24.15;56.49
78898;DHT22;70344;44.736;37.800;2023-05-24T03:31:23;24.14;56.58
78898;DHT22;70344;44.736;37.800;2023-05-24T03:32:27;24.14;56.80
78898;DHT22;70344;44.736;37.800;2023-05-24T03:33:28;24.14;56.66
78898;DHT22;70344;44.736;37.800;2023-05-24T03:34:30;24.17;56.69
78898;DHT22;70344;44.736;37.800;2023-05-24T03:35:32;24.15;56.71
78898;DHT22;70344;44.736;37.800;2023-05-24T03:36:33;24.15;56.66
78898;DHT22;70344;44.736;37.800;2023-05-24T03:37:37;24.15;56.67
78898;DHT22;70344;44.736;37.800;2023-05-24T03:38:39;24.14;56.73
78898;DHT22;70344;44.736;37.800;2023-05-24T03:39:40;24.15;56.75
78898;DHT22;70344;44.736;37.800;2023-05-24T03:41:11;24.15;56.67
78898;DHT22;70344;44.736;37.800;2023-05-24T03:42:13;24.14;56.73
78898;DHT22;70344;44.736;37.800;2023-05-24T03:43:14;24.14;56.73
78898;DHT22;70344;44.736;37.800;2023-05-24T03:44:25;24.17;56.73
78898;DHT22;70344;44.736;37.800;2023-05-24T03:45:26;24.15;56.70
78898;DHT22;70344;44.736;37.800;2023-05-24T03:46:28;24.17;56.79
78898;DHT22;70344;44.736;37.800;2023-05-24T03:47:29;24.18;56.80
78898;DHT22;70344;44.736;37.800;2023-05-24T03:48:31;24.17;56.86
78898;DHT22;70344;44.736;37.800;2023-05-24T03:49:33;24.17;56.86
78898;DHT22;70344;44.736;37.800;2023-05-24T03:50:35;24.15;56.90
78898;DHT22;70344;44.736;37.800;2023-05-24T03:51:37;24.17;56.77
78898;DHT22;70344;44.736;37.800;2023-05-24T03:52:38;24.17;56.93
78898;DHT22;70344;44.736;37.800;2023-05-24T03:53:40;24.18;56.84
78898;DHT22;70344;44.736;37.800;2023-05-24T03:54:42;24.15;56.91
78898;DHT22;70344;44.736;37.800;2023-05-24T03:55:43;24.18;56.89
78898;DHT22;70344;44.736;37.800;2023-05-24T03:56:46;24.17;56.96
78898;DHT22;70344;44.736;37.800;2023-05-24T03:57:47;24.17;56.90
78898;DHT22;70344;44.736;37.800;2023-05-24T03:58:49;24.18;56.94
78898;DHT22;70344;44.736;37.800;2023-05-24T03:59:52;24.20;56.92
78898;DHT22;70344;44.736;37.800;2023-05-24T04:00:53;24.20;56.92
78898;DHT22;70344;44.736;37.800;2023-05-24T04:01:56;24.18;56.91
78898;DHT22;70344;44.736;37.800;2023-05-24T04:02:57;24.18;56.95
78898;DHT22;70344;44.736;37.800;2023-05-24T04:04:00;24.18;56.98
78898;DHT22;70344;44.736;37.800;2023-05-24T04:05:02;24.20;56.90
78898;DHT22;70344;44.736;37.800;2023-05-24T04:06:03;24.18;56.91
78898;DHT22;70344;44.736;37.800;2023-05-24T04:07:05;24.20;56.92
78898;DHT22;70344;44.736;37.800;2023-05-24T04:08:08;24.18;56.93
78898;DHT22;70344;44.736;37.800;2023-05-24T04:09:11;24.18;56.85
78898;DHT22;70344;44.736;37.800;2023-05-24T04:10:13;24.21;56.94
78898;DHT22;70344;44.736;37.800;2023-05-24T04:11:16;24.20;57.11
78898;DHT22;70344;44.736;37.800;2023-05-24T04:12:19;24.18;56.92
78898;DHT22;70344;44.736;37.800;2023-05-24T04:13:21;24.20;57.00
78898;DHT22;70344;44.736;37.800;2023-05-24T04:14:22;24.21;56.91
78898;DHT22;70344;44.736;37.800;2023-05-24T04:15:24;24.18;56.90
78898;DHT22;70344;44.736;37.800;2023-05-24T04:16:26;24.21;56.88
78898;DHT22;70344;44.736;37.800;2023-05-24T04:17:29;24.21;56.91
78898;DHT22;70344;44.736;37.800;2023-05-24T04:18:35;24.20;56.93
78898;DHT22;70344;44.736;37.800;2023-05-24T04:19:36;24.20;56.98
78898;DHT22;70344;44.736;37.800;2023-05-24T04:20:37;24.20;56.93
78898;DHT22;70344;44.736;37.800;2023-05-24T04:21:39;24.24;56.95
78898;DHT22;70344;44.736;37.800;2023-05-24T04:22:40;24.24;57.06
78898;DHT22;70344;44.736;37.800;2023-05-24T04:23:42;24.21;57.01
78898;DHT22;70344;44.736;37.800;2023-05-24T04:24:44;24.22;57.14
78898;DHT22;70344;44.736;37.800;2023-05-24T04:25:46;24.22;57.15
78898;DHT22;70344;44.736;37.800;2023-05-24T04:26:47;24.22;57.08
78898;DHT22;70344;44.736;37.800;2023-05-24T04:27:49;24.22;57.09
78898;DHT22;70344;44.736;37.800;2023-05-24T04:28:50;24.24;57.17
78898;DHT22;70344;44.736;37.800;2023-05-24T04:29:52;24.25;57.14
78898;DHT22;70344;44.736;37.800;2023-05-24T04:30:54;24.24;57.13
78898;DHT22;70344;44.736;37.800;2023-05-24T04:31:57;24.24;57.16
78898;DHT22;70344;44.736;37.800;2023-05-24T04:33:01;24.21;57.16
78898;DHT22;70344;44.736;37.800;2023-05-24T04:34:04;24.24;57.17
78898;DHT22;70344;44.736;37.800;2023-05-24T04:35:07;24.21;57.15
78898;DHT22;70344;44.736;37.800;2023-05-24T04:36:09;24.24;57.13
78898;DHT22;70344;44.736;37.800;2023-05-24T04:37:12;24.24;57.08
78898;DHT22;70344;44.736;37.800;2023-05-24T04:38:19;24.22;57.05
78898;DHT22;70344;44.736;37.800;2023-05-24T04:39:20;24.25;57.10
78898;DHT22;70344;44.736;37.800;2023-05-24T04:40:22;24.22;57.04
78898;DHT22;70344;44.736;37.800;2023-05-24T04:41:23;24.22;57.04
78898;DHT22;70344;44.736;37.800;2023-05-24T04:42:25;24.22;57.04
78898;DHT22;70344;44.736;37.800;2023-05-24T04:43:31;24.20;57.06
78898;DHT22;70344;44.736;37.800;2023-05-24T04:44:34;24.25;57.04
78898;DHT22;70344;44.736;37.800;2023-05-24T04:45:35;24.25;57.08
78898;DHT22;70344;44.736;37.800;2023-05-24T04:46:37;24.22;57.04
78898;DHT22;70344;44.736;37.800;2023-05-24T04:47:40;24.24;57.01
78898;DHT22;70344;44.736;37.800;2023-05-24T04:48:42;24.26;57.00
78898;DHT22;70344;44.736;37.800;2023-05-24T04:49:43;24.25;57.00
78898;DHT22;70344;44.736;37.800;2023-05-24T04:50:45;24.22;56.98
78898;DHT22;70344;44.736;37.800;2023-05-24T04:51:46;24.25;56.97
78898;DHT22;70344;44.736;37.800;2023-05-24T04:52:48;24.21;56.97
78898;DHT22;70344;44.736;37.800;2023-05-24T04:53:49;24.24;56.88
78898;DHT22;70344;44.736;37.800;2023-05-24T04:54:51;24.24;56.88
78898;DHT22;70344;44.736;37.800;2023-05-24T04:55:53;24.25;56.87
78898;DHT22;70344;44.736;37.800;2023-05-24T04:56:55;24.26;56.82
78898;DHT22;70344;44.736;37.800;2023-05-24T04:57:56;24.22;56.80
78898;DHT22;70344;44.736;37.800;2023-05-24T04:58:58;24.24;56.79
78898;DHT22;70344;44.736;37.800;2023-05-24T04:59:59;24.28;56.76
78898;DHT22;70344;44.736;37.800;2023-05-24T05:01:01;24.22;56.81
78898;DHT22;70344;44.736;37.800;2023-05-24T05:02:02;24.22;56.82
78898;DHT22;70344;44.736;37.800;2023-05-24T05:03:05;24.24;56.83
78898;DHT22;70344;44.736;37.800;2023-05-24T05:04:07;24.25;56.86
78898;DHT22;70344;44.736;37.800;2023-05-24T05:05:08;24.22;56.81
78898;DHT22;70344;44.736;37.800;2023-05-24T05:06:10;24.24;56.80
78898;DHT22;70344;44.736;37.800;2023-05-24T05:07:11;24.25;56.82
78898;DHT22;70344;44.736;37.800;2023-05-24T05:08:13;24.24;56.75
78898;DHT22;70344;44.736;37.800;2023-05-24T05:09:14;24.25;56.73
78898;DHT22;70344;44.736;37.800;2023-05-24T05:10:16;24.22;56.73
78898;DHT22;70344;44.736;37.800;2023-05-24T05:11:17;24.24;56.72
78898;DHT22;70344;44.736;37.800;2023-05-24T05:12:19;24.25;56.71
78898;DHT22;70344;44.736;37.800;2023-05-24T05:13:20;24.25;56.71
78898;DHT22;70344;44.736;37.800;2023-05-24T05:14:22;24.22;56.78
78898;DHT22;70344;44.736;37.800;2023-05-24T05:15:23;24.25;56.78
78898;DHT22;70344;44.736;37.800;2023-05-24T05:16:24;24.22;56.76
78898;DHT22;70344;44.736;37.800;2023-05-24T05:17:26;24.25;56.70
78898;DHT22;70344;44.736;37.800;2023-05-24T05:18:27;24.25;56.72
78898;DHT22;70344;44.736;37.800;2023-05-24T05:19:29;24.25;56.76
78898;DHT22;70344;44.736;37.800;2023-05-24T05:20:30;24.26;56.71
78898;DHT22;70344;44.736;37.800;2023-05-24T05:21:33;24.24;56.72
78898;DHT22;70344;44.736;37.800;2023-05-24T05:22:34;24.25;56.65
78898;DHT22;70344;44.736;37.800;2023-05-24T05:23:36;24.24;56.72
78898;DHT22;70344;44.736;37.800;2023-05-24T05:24:39;24.26;56.67
78898;DHT22;70344;44.736;37.800;2023-05-24T05:25:41;24.26;56.69
78898;DHT22;70344;44.736;37.800;2023-05-24T05:26:42;24.25;56.70
78898;DHT22;70344;44.736;37.800;2023-05-24T05:27:44;24.24;56.70
78898;DHT22;70344;44.736;37.800;2023-05-24T05:28:45;24.25;56.70
78898;DHT22;70344;44.736;37.800;2023-05-24T05:29:47;24.25;56.63
78898;DHT22;70344;44.736;37.800;2023-05-24T05:30:48;24.25;56.65
78898;DHT22;70344;44.736;37.800;2023-05-24T05:31:50;24.22;56.65
78898;DHT22;70344;44.736;37.800;2023-05-24T05:32:51;24.28;56.63
78898;DHT22;70344;44.736;37.800;2023-05-24T05:33:53;24.26;56.64
78898;DHT22;70344;44.736;37.800;2023-05-24T05:34:54;24.25;56.62
78898;DHT22;70344;44.736;37.800;2023-05-24T05:35:56;24.25;56.63
78898;DHT22;70344;44.736;37.800;2023-05-24T05:36:57;24.25;56.62
78898;DHT22;70344;44.736;37.800;2023-05-24T05:37:59;24.25;56.63
78898;DHT22;70344;44.736;37.800;2023-05-24T05:39:00;24.26;56.59
78898;DHT22;70344;44.736;37.800;2023-05-24T05:40:02;24.26;56.60
78898;DHT22;70344;44.736;37.800;2023-05-24T05:41:04;24.25;56.52
78898;DHT22;70344;44.736;37.800;2023-05-24T05:42:06;24.24;56.51
78898;DHT22;70344;44.736;37.800;2023-05-24T05:43:07;24.26;56.56
78898;DHT22;70344;44.736;37.800;2023-05-24T05:44:10;24.25;56.56
78898;DHT22;70344;44.736;37.800;2023-05-24T05:45:11;24.26;56.53
78898;DHT22;70344;44.736;37.800;2023-05-24T05:46:13;24.25;56.53
78898;DHT22;70344;44.736;37.800;2023-05-24T05:47:15;24.25;56.56
78898;DHT22;70344;44.736;37.800;2023-05-24T05:48:17;24.25;56.55
78898;DHT22;70344;44.736;37.800;2023-05-24T05:49:18;24.25;56.49
78898;DHT22;70344;44.736;37.800;2023-05-24T05:50:20;24.26;56.53
78898;DHT22;70344;44.736;37.800;2023-05-24T05:51:21;24.25;56.53
78898;DHT22;70344;44.736;37.800;2023-05-24T05:52:23;24.25;56.53
78898;DHT22;70344;44.736;37.800;2023-05-24T05:53:24;24.24;56.55
78898;DHT22;70344;44.736;37.800;2023-05-24T05:54:26;24.26;56.50
78898;DHT22;70344;44.736;37.800;2023-05-24T05:55:28;24.26;56.52
78898;DHT22;70344;44.736;37.800;2023-05-24T05:56:29;24.26;56.52
78898;DHT22;70344;44.736;37.800;2023-05-24T05:57:31;24.26;56.53
78898;DHT22;70344;44.736;37.800;2023-05-24T05:58:32;24.25;56.48
78898;DHT22;70344;44.736;37.800;2023-05-24T05:59:34;24.26;56.48
78898;DHT22;70344;44.736;37.800;2023-05-24T06:00:36;24.26;56.50
78898;DHT22;70344;44.736;37.800;2023-05-24T06:01:38;24.26;56.47
78898;DHT22;70344;44.736;37.800;2023-05-24T06:02:40;24.26;56.50
78898;DHT22;70344;44.736;37.800;2023-05-24T06:03:42;24.25;56.49
78898;DHT22;70344;44.736;37.800;2023-05-24T06:04:44;24.26;56.48
78898;DHT22;70344;44.736;37.800;2023-05-24T06:05:46;24.24;56.46
78898;DHT22;70344;44.736;37.800;2023-05-24T06:06:47;24.26;56.44
78898;DHT22;70344;44.736;37.800;2023-05-24T06:07:49;24.28;56.49
78898;DHT22;70344;44.736;37.800;2023-05-24T06:08:51;24.26;56.43
78898;DHT22;70344;44.736;37.800;2023-05-24T06:09:52;24.26;56.48
78898;DHT22;70344;44.736;37.800;2023-05-24T06:10:53;24.29;56.43
78898;DHT22;70344;44.736;37.800;2023-05-24T06:11:55;24.28;56.43
78898;DHT22;70344;44.736;37.800;2023-05-24T06:12:56;24.26;56.46
78898;DHT22;70344;44.736;37.800;2023-05-24T06:13:58;24.26;56.48
78898;DHT22;70344;44.736;37.800;2023-05-24T06:14:59;24.26;56.43
78898;DHT22;70344;44.736;37.800;2023-05-24T06:16:01;24.26;56.46
78898;DHT22;70344;44.736;37.800;2023-05-24T06:17:04;24.28;56.46
78898;DHT22;70344;44.736;37.800;2023-05-24T06:18:05;24.28;56.46
78898;DHT22;70344;44.736;37.800;2023-05-24T06:19:07;24.29;56.49
78898;DHT22;70344;44.736;37.800;2023-05-24T06:20:09;24.28;56.42
78898;DHT22;70344;44.736;37.800;2023-05-24T06:21:15;24.28;56.41
78898;DHT22;70344;44.736;37.800;2023-05-24T06:22:17;24.28;56.37
78898;DHT22;70344;44.736;37.800;2023-05-24T06:23:18;24.26;56.39
78898;DHT22;70344;44.736;37.800;2023-05-24T06:24:20;24.26;56.39
78898;DHT22;70344;44.736;37.800;2023-05-24T06:25:22;24.26;56.42
78898;DHT22;70344;44.736;37.800;2023-05-24T06:26:24;24.24;56.40
78898;DHT22;70344;44.736;37.800;2023-05-24T06:27:27;24.26;56.39
78898;DHT22;70344;44.736;37.800;2023-05-24T06:28:28;24.26;56.40
78898;DHT22;70344;44.736;37.800;2023-05-24T06:29:29;24.28;56.39
78898;DHT22;70344;44.736;37.800;2023-05-24T06:30:31;24.26;56.36
78898;DHT22;70344;44.736;37.800;2023-05-24T06:31:33;24.28;56.32
78898;DHT22;70344;44.736;37.800;2023-05-24T06:32:35;24.28;56.38
78898;DHT22;70344;44.736;37.800;2023-05-24T06:33:37;24.28;56.34
78898;DHT22;70344;44.736;37.800;2023-05-24T06:34:38;24.25;56.32
78898;DHT22;70344;44.736;37.800;2023-05-24T06:35:40;24.28;56.32
78898;DHT22;70344;44.736;37.800;2023-05-24T06:36:41;24.28;56.33
78898;DHT22;70344;44.736;37.800;2023-05-24T06:37:43;24.28;56.32
78898;DHT22;70344;44.736;37.800;2023-05-24T06:38:44;24.28;56.33
78898;DHT22;70344;44.736;37.800;2023-05-24T06:39:45;24.29;56.34
78898;DHT22;70344;44.736;37.800;2023-05-24T06:40:47;24.28;56.32
78898;DHT22;70344;44.736;37.800;2023-05-24T06:41:48;24.28;56.30
78898;DHT22;70344;44.736;37.800;2023-05-24T06:42:57;24.28;56.32
78898;DHT22;70344;44.736;37.800;2023-05-24T06:43:59;24.28;56.33